createdAt,value
2019-05-29T00:00:37.063Z,10.61
2019-05-29T00:01:37.093Z,10.64
2019-05-29T00:02:37.261Z,10.68
2019-05-29T00:03:37.221Z,10.74
2019-05-29T00:04:37.282Z,10.64
2019-05-29T00:05:37.348Z,10.61
2019-05-29T00:06:37.405Z,10.60
2019-05-29T00:07:37.473Z,10.56
2019-05-29T00:08:37.541Z,10.63
2019-05-29T00:09:37.593Z,10.64
2019-05-29T00:10:37.654Z,10.74
2019-05-29T00:11:37.723Z,10.71
2019-05-29T00:12:37.789Z,10.71
2019-05-29T00:13:37.849Z,10.74
2019-05-29T00:14:37.906Z,10.71
2019-05-29T00:15:37.967Z,10.63
2019-05-29T00:16:38.026Z,10.74
2019-05-29T00:17:38.187Z,10.71
2019-05-29T00:18:38.150Z,10.64
2019-05-29T00:19:38.214Z,10.63
2019-05-29T00:20:38.274Z,10.67
2019-05-29T00:21:38.338Z,10.61
2019-05-29T00:22:38.407Z,10.60
2019-05-29T00:23:38.466Z,10.59
2019-05-29T00:24:38.522Z,10.54
2019-05-29T00:25:38.586Z,10.56
2019-05-29T00:26:38.650Z,10.64
2019-05-29T00:27:38.714Z,10.64
2019-05-29T00:28:38.779Z,10.60
2019-05-29T00:29:38.835Z,10.53
2019-05-29T00:30:38.900Z,10.57
2019-05-29T00:31:38.958Z,10.56
2019-05-29T00:32:39.054Z,10.53
2019-05-29T00:33:39.088Z,10.54
2019-05-29T00:34:39.147Z,10.53
2019-05-29T00:35:39.202Z,10.48
2019-05-29T00:36:39.267Z,10.35
2019-05-29T00:37:39.334Z,10.40
2019-05-29T00:38:39.405Z,10.42
2019-05-29T00:39:39.450Z,10.33
2019-05-29T00:40:39.515Z,10.40
2019-05-29T00:41:39.575Z,10.31
2019-05-29T00:42:39.672Z,10.31
2019-05-29T00:43:39.707Z,10.22
2019-05-29T00:44:39.763Z,10.25
2019-05-29T00:45:39.826Z,10.20
2019-05-29T00:46:39.887Z,10.20
2019-05-29T00:47:39.959Z,10.17
2019-05-29T00:48:40.023Z,10.16
2019-05-29T00:49:40.087Z,10.22
2019-05-29T00:50:40.131Z,10.17
2019-05-29T00:51:40.198Z,10.25
2019-05-29T00:52:40.347Z,10.09
2019-05-29T00:53:40.319Z,10.20
2019-05-29T00:54:40.380Z,10.13
2019-05-29T00:55:40.441Z,10.13
2019-05-29T00:56:40.504Z,10.16
2019-05-29T00:57:40.571Z,10.09
2019-05-29T00:58:41.503Z,10.13
2019-05-29T00:59:40.693Z,10.04
2019-05-29T01:00:40.753Z,10.10
2019-05-29T01:01:40.816Z,10.07
2019-05-29T01:02:40.891Z,10.04
2019-05-29T01:03:40.943Z,10.05
2019-05-29T01:04:41.001Z,10.10
2019-05-29T01:05:41.061Z,10.09
2019-05-29T01:06:41.121Z,10.04
2019-05-29T01:07:41.220Z,10.04
2019-05-29T01:08:41.245Z,9.95
2019-05-29T01:09:41.313Z,9.91
2019-05-29T01:10:41.368Z,9.91
2019-05-29T01:11:41.428Z,9.83
2019-05-29T01:12:41.563Z,9.84
2019-05-29T01:13:41.561Z,9.83
2019-05-29T01:14:50.211Z,9.80
2019-05-29T01:15:41.677Z,9.73
2019-05-29T01:16:41.736Z,9.74
2019-05-29T01:17:41.813Z,9.66
2019-05-29T01:18:41.869Z,9.65
2019-05-29T01:19:41.928Z,9.61
2019-05-29T01:20:41.987Z,9.59
2019-05-29T01:21:42.049Z,9.55
2019-05-29T01:22:42.217Z,9.56
2019-05-29T01:23:42.169Z,9.59
2019-05-29T01:24:42.234Z,9.59
2019-05-29T01:25:42.298Z,9.55
2019-05-29T01:26:42.362Z,9.55
2019-05-29T01:27:42.426Z,9.47
2019-05-29T01:28:42.486Z,9.44
2019-05-29T01:29:42.542Z,9.36
2019-05-29T01:30:42.606Z,9.37
2019-05-29T01:31:42.665Z,9.34
2019-05-29T01:32:42.735Z,9.41
2019-05-29T01:33:42.793Z,9.32
2019-05-29T01:34:42.850Z,9.29
2019-05-29T01:35:42.910Z,9.36
2019-05-29T01:36:42.974Z,9.37
2019-05-29T01:37:43.044Z,9.32
2019-05-29T01:38:43.102Z,9.37
2019-05-29T01:39:43.162Z,9.26
2019-05-29T01:40:43.218Z,9.29
2019-05-29T01:41:43.282Z,9.34
2019-05-29T01:42:43.350Z,9.40
2019-05-29T01:43:43.410Z,9.36
2019-05-29T01:44:43.466Z,9.37
2019-05-29T01:45:43.526Z,9.36
2019-05-29T01:46:43.591Z,9.37
2019-05-29T01:47:43.659Z,9.36
2019-05-29T01:48:43.721Z,9.36
2019-05-29T01:49:43.774Z,9.36
2019-05-29T01:50:43.835Z,9.36
2019-05-29T01:51:43.898Z,9.32
2019-05-29T01:52:43.967Z,9.37
2019-05-29T01:53:44.030Z,9.36
2019-05-29T01:54:44.083Z,9.29
2019-05-29T01:55:44.143Z,9.25
2019-05-29T01:56:44.202Z,9.25
2019-05-29T01:57:44.379Z,9.25
2019-05-29T01:58:44.335Z,9.16
2019-05-29T01:59:44.391Z,9.14
2019-05-29T02:00:44.452Z,9.14
2019-05-29T02:01:44.511Z,9.14
2019-05-29T02:02:44.584Z,9.03
2019-05-29T02:03:44.644Z,9.06
2019-05-29T02:04:44.695Z,9.03
2019-05-29T02:05:44.760Z,9.06
2019-05-29T02:06:44.819Z,8.92
2019-05-29T02:07:44.889Z,8.95
2019-05-29T02:08:44.948Z,8.95
2019-05-29T02:09:45.003Z,8.88
2019-05-29T02:10:45.068Z,8.95
2019-05-29T02:11:45.128Z,8.88
2019-05-29T02:12:45.296Z,8.84
2019-05-29T02:13:45.251Z,8.87
2019-05-29T02:14:45.316Z,8.82
2019-05-29T02:15:45.372Z,8.85
2019-05-29T02:16:45.436Z,8.74
2019-05-29T02:17:45.513Z,8.70
2019-05-29T02:18:45.564Z,8.76
2019-05-29T02:19:45.616Z,8.74
2019-05-29T02:20:45.680Z,8.74
2019-05-29T02:21:45.740Z,8.76
2019-05-29T02:22:45.812Z,8.79
2019-05-29T02:23:45.872Z,8.71
2019-05-29T02:24:45.925Z,8.74
2019-05-29T02:25:45.990Z,8.73
2019-05-29T02:26:46.048Z,8.66
2019-05-29T02:27:46.137Z,8.70
2019-05-29T02:28:46.172Z,8.70
2019-05-29T02:29:46.235Z,8.69
2019-05-29T02:30:46.298Z,8.61
2019-05-29T02:31:46.358Z,8.64
2019-05-29T02:32:46.426Z,8.69
2019-05-29T02:33:46.490Z,8.58
2019-05-29T02:34:46.546Z,8.53
2019-05-29T02:35:46.601Z,8.48
2019-05-29T02:36:46.666Z,8.53
2019-05-29T02:37:46.733Z,8.45
2019-05-29T02:38:46.928Z,8.49
2019-05-29T02:39:46.847Z,8.48
2019-05-29T02:40:46.924Z,8.46
2019-05-29T02:41:46.973Z,8.51
2019-05-29T02:42:47.039Z,8.44
2019-05-29T02:43:47.097Z,8.42
2019-05-29T02:44:47.153Z,8.36
2019-05-29T02:45:54.436Z,8.37
2019-05-29T02:46:47.278Z,8.46
2019-05-29T02:47:47.349Z,8.44
2019-05-29T02:48:47.409Z,8.41
2019-05-29T02:49:47.462Z,8.38
2019-05-29T02:50:47.522Z,8.45
2019-05-29T02:51:47.583Z,8.48
2019-05-29T02:52:47.655Z,8.37
2019-05-29T02:53:47.710Z,8.44
2019-05-29T02:54:47.768Z,8.45
2019-05-29T02:55:47.827Z,8.38
2019-05-29T02:56:47.892Z,8.34
2019-05-29T02:57:47.959Z,8.31
2019-05-29T02:58:48.024Z,8.31
2019-05-29T02:59:48.071Z,8.26
2019-05-29T03:00:48.135Z,8.24
2019-05-29T03:01:48.196Z,8.23
2019-05-29T03:02:48.351Z,8.24
2019-05-29T03:03:48.335Z,8.26
2019-05-29T03:04:48.378Z,8.24
2019-05-29T03:05:48.438Z,8.20
2019-05-29T03:06:48.507Z,8.27
2019-05-29T03:07:48.575Z,8.18
2019-05-29T03:08:48.634Z,8.26
2019-05-29T03:09:48.693Z,8.26
2019-05-29T03:10:48.748Z,8.20
2019-05-29T03:11:48.807Z,8.18
2019-05-29T03:12:48.877Z,8.15
2019-05-29T03:13:48.940Z,8.27
2019-05-29T03:14:48.990Z,8.19
2019-05-29T03:16:07.957Z,8.23
2019-05-29T03:16:49.113Z,8.13
2019-05-29T03:17:49.264Z,8.16
2019-05-29T03:18:49.237Z,8.18
2019-05-29T03:19:49.299Z,8.18
2019-05-29T03:20:49.360Z,8.00
2019-05-29T03:21:49.423Z,8.10
2019-05-29T03:22:49.489Z,8.10
2019-05-29T03:23:49.548Z,8.03
2019-05-29T03:24:49.605Z,8.06
2019-05-29T03:25:49.663Z,8.03
2019-05-29T03:26:49.728Z,8.12
2019-05-29T03:27:49.796Z,8.06
2019-05-29T03:28:49.864Z,8.06
2019-05-29T03:29:49.907Z,8.05
2019-05-29T03:30:49.972Z,8.05
2019-05-29T03:31:50.028Z,8.03
2019-05-29T03:32:50.273Z,7.98
2019-05-29T03:33:51.055Z,8.00
2019-05-29T03:34:50.213Z,7.97
2019-05-29T03:35:50.277Z,8.00
2019-05-29T03:36:50.337Z,7.95
2019-05-29T03:37:50.404Z,8.00
2019-05-29T03:38:50.465Z,7.93
2019-05-29T03:39:50.521Z,7.97
2019-05-29T03:40:50.587Z,7.83
2019-05-29T03:41:50.651Z,7.83
2019-05-29T03:42:50.708Z,7.93
2019-05-29T03:43:50.769Z,7.95
2019-05-29T03:44:50.824Z,7.95
2019-05-29T03:45:50.889Z,7.91
2019-05-29T03:46:50.949Z,7.97
2019-05-29T03:47:51.017Z,7.98
2019-05-29T03:48:51.076Z,7.94
2019-05-29T03:49:51.133Z,7.95
2019-05-29T03:50:51.198Z,7.93
2019-05-29T03:51:51.253Z,8.00
2019-05-29T03:52:51.323Z,7.94
2019-05-29T03:53:51.386Z,7.97
2019-05-29T03:54:51.437Z,8.03
2019-05-29T03:55:51.502Z,7.97
2019-05-29T03:56:51.562Z,8.00
2019-05-29T03:57:51.626Z,8.01
2019-05-29T03:58:51.690Z,7.97
2019-05-29T03:59:51.751Z,8.00
2019-05-29T04:00:51.807Z,7.95
2019-05-29T04:01:51.867Z,8.06
2019-05-29T04:02:51.933Z,8.08
2019-05-29T04:03:51.994Z,8.08
2019-05-29T04:04:52.062Z,8.05
2019-05-29T04:05:52.110Z,8.01
2019-05-29T04:06:52.173Z,8.06
2019-05-29T04:07:52.243Z,8.10
2019-05-29T04:08:52.295Z,8.15
2019-05-29T04:09:52.358Z,8.09
2019-05-29T04:10:52.413Z,8.08
2019-05-29T04:11:52.474Z,8.15
2019-05-29T04:12:52.542Z,8.16
2019-05-29T04:13:52.609Z,8.15
2019-05-29T04:14:52.662Z,8.16
2019-05-29T04:15:52.723Z,8.24
2019-05-29T04:16:59.594Z,8.09
2019-05-29T04:17:52.851Z,8.20
2019-05-29T04:18:52.910Z,8.20
2019-05-29T04:19:52.970Z,8.24
2019-05-29T04:20:53.027Z,8.26
2019-05-29T04:21:53.091Z,8.24
2019-05-29T04:22:53.183Z,8.30
2019-05-29T04:23:53.211Z,8.36
2019-05-29T04:24:53.279Z,8.34
2019-05-29T04:25:53.336Z,8.31
2019-05-29T04:26:53.395Z,8.31
2019-05-29T04:27:53.462Z,8.33
2019-05-29T04:28:53.535Z,8.34
2019-05-29T04:29:53.715Z,8.41
2019-05-29T04:30:53.638Z,8.36
2019-05-29T04:31:53.700Z,8.45
2019-05-29T04:32:53.775Z,8.45
2019-05-29T04:33:53.831Z,8.49
2019-05-29T04:34:53.887Z,8.52
2019-05-29T04:35:53.943Z,8.55
2019-05-29T04:36:54.011Z,8.52
2019-05-29T04:37:54.164Z,8.66
2019-05-29T04:38:54.131Z,8.64
2019-05-29T04:39:54.191Z,8.66
2019-05-29T04:40:54.251Z,8.69
2019-05-29T04:41:54.327Z,8.64
2019-05-29T04:42:54.380Z,8.71
2019-05-29T04:43:57.045Z,8.76
2019-05-29T04:44:54.501Z,8.85
2019-05-29T04:45:54.577Z,8.85
2019-05-29T04:47:09.495Z,8.81
2019-05-29T04:47:54.831Z,8.85
2019-05-29T04:48:54.762Z,8.88
2019-05-29T04:49:54.804Z,8.89
2019-05-29T04:50:54.864Z,9.03
2019-05-29T04:51:54.924Z,8.91
2019-05-29T04:52:54.999Z,8.94
2019-05-29T04:53:55.057Z,9.03
2019-05-29T04:54:55.114Z,9.13
2019-05-29T04:55:55.174Z,9.11
2019-05-29T04:56:55.236Z,9.25
2019-05-29T04:57:55.308Z,9.21
2019-05-29T04:58:55.356Z,9.26
2019-05-29T04:59:55.420Z,9.31
2019-05-29T05:00:59.297Z,9.41
2019-05-29T05:01:55.542Z,9.40
2019-05-29T05:02:55.608Z,9.46
2019-05-29T05:03:55.668Z,9.44
2019-05-29T05:04:55.726Z,9.47
2019-05-29T05:05:55.785Z,9.51
2019-05-29T05:06:55.852Z,9.59
2019-05-29T05:07:55.916Z,9.51
2019-05-29T05:08:55.985Z,9.54
2019-05-29T05:09:56.034Z,9.56
2019-05-29T05:10:56.097Z,9.69
2019-05-29T05:11:56.154Z,9.73
2019-05-29T05:12:56.312Z,9.72
2019-05-29T05:13:56.283Z,9.82
2019-05-29T05:14:56.345Z,9.79
2019-05-29T05:15:56.401Z,9.82
2019-05-29T05:16:56.461Z,9.89
2019-05-29T05:17:56.533Z,9.99
2019-05-29T05:18:56.594Z,9.91
2019-05-29T05:19:56.645Z,9.89
2019-05-29T05:20:56.713Z,9.97
2019-05-29T05:21:56.770Z,10.09
2019-05-29T05:22:56.838Z,10.02
2019-05-29T05:23:56.902Z,9.99
2019-05-29T05:24:56.953Z,10.09
2019-05-29T05:25:57.021Z,10.17
2019-05-29T05:26:57.077Z,10.16
2019-05-29T05:27:57.159Z,10.15
2019-05-29T05:28:57.203Z,10.22
2019-05-29T05:29:57.261Z,10.20
2019-05-29T05:30:57.329Z,10.20
2019-05-29T05:31:57.385Z,10.31
2019-05-29T05:32:57.460Z,10.38
2019-05-29T05:33:57.513Z,10.38
2019-05-29T05:34:57.571Z,10.31
2019-05-29T05:35:57.638Z,10.38
2019-05-29T05:36:57.696Z,10.38
2019-05-29T05:37:57.773Z,10.44
2019-05-29T05:38:57.828Z,10.46
2019-05-29T05:39:57.879Z,10.53
2019-05-29T05:40:57.942Z,10.51
2019-05-29T05:41:58.003Z,10.61
2019-05-29T05:42:58.094Z,10.64
2019-05-29T05:43:58.126Z,10.61
2019-05-29T05:44:58.192Z,10.69
2019-05-29T05:45:58.251Z,10.71
2019-05-29T05:46:58.326Z,10.71
2019-05-29T05:47:58.382Z,10.68
2019-05-29T05:48:58.442Z,10.76
2019-05-29T05:49:58.502Z,10.75
2019-05-29T05:50:58.560Z,10.78
2019-05-29T05:51:58.628Z,10.79
2019-05-29T05:52:58.694Z,10.93
2019-05-29T05:53:58.752Z,10.92
2019-05-29T05:54:58.805Z,10.99
2019-05-29T05:55:58.873Z,11.02
2019-05-29T05:56:58.931Z,10.96
2019-05-29T05:57:59.003Z,11.04
2019-05-29T05:58:59.066Z,11.00
2019-05-29T05:59:59.116Z,11.12
2019-05-29T06:00:59.181Z,11.08
2019-05-29T06:01:59.246Z,11.23
2019-05-29T06:02:59.303Z,11.10
2019-05-29T06:03:59.465Z,11.27
2019-05-29T06:04:59.428Z,11.23
2019-05-29T06:05:59.488Z,11.30
2019-05-29T06:06:59.547Z,11.41
2019-05-29T06:07:59.612Z,11.37
2019-05-29T06:08:59.679Z,11.41
2019-05-29T06:09:59.749Z,11.47
2019-05-29T06:10:59.804Z,11.45
2019-05-29T06:11:59.861Z,11.44
2019-05-29T06:12:59.921Z,11.54
2019-05-29T06:13:59.997Z,11.60
2019-05-29T06:15:00.051Z,11.68
2019-05-29T06:16:00.116Z,11.95
2019-05-29T06:17:00.173Z,12.29
2019-05-29T06:18:19.351Z,12.91
2019-05-29T06:19:00.389Z,13.95
2019-05-29T06:20:00.357Z,14.81
2019-05-29T06:21:00.443Z,15.72
2019-05-29T06:22:00.489Z,16.36
2019-05-29T06:23:00.552Z,16.93
2019-05-29T06:24:00.632Z,17.44
2019-05-29T06:25:00.692Z,17.74
2019-05-29T06:26:00.749Z,17.97
2019-05-29T06:27:00.820Z,18.53
2019-05-29T06:28:00.888Z,19.21
2019-05-29T06:29:00.960Z,19.63
2019-05-29T06:30:01.041Z,20.21
2019-05-29T06:31:01.093Z,20.70
2019-05-29T06:32:01.166Z,21.18
2019-05-29T06:33:01.232Z,21.67
2019-05-29T06:34:01.334Z,22.04
2019-05-29T06:35:01.374Z,22.13
2019-05-29T06:36:01.441Z,22.17
2019-05-29T06:37:01.517Z,22.11
2019-05-29T06:38:01.592Z,22.20
2019-05-29T06:39:01.670Z,22.50
2019-05-29T06:40:01.736Z,22.63
2019-05-29T06:41:01.803Z,22.75
2019-05-29T06:42:01.877Z,22.93
2019-05-29T06:43:01.950Z,23.24
2019-05-29T06:44:02.029Z,23.51
2019-05-29T06:45:03.115Z,23.78
2019-05-29T06:46:02.173Z,23.83
2019-05-29T06:47:02.293Z,23.95
2019-05-29T06:48:02.318Z,23.84
2019-05-29T06:49:02.403Z,24.03
2019-05-29T06:50:02.475Z,24.26
2019-05-29T06:51:02.546Z,24.54
2019-05-29T06:52:02.618Z,24.77
2019-05-29T06:53:02.708Z,24.80
2019-05-29T06:54:02.778Z,24.99
2019-05-29T06:55:02.854Z,25.06
2019-05-29T06:56:03.540Z,24.57
2019-05-29T06:57:02.998Z,24.24
2019-05-29T06:58:03.327Z,23.61
2019-05-29T06:59:03.293Z,23.86
2019-05-29T07:00:03.238Z,23.91
2019-05-29T07:01:03.314Z,24.17
2019-05-29T07:02:03.383Z,24.63
2019-05-29T07:03:03.464Z,24.76
2019-05-29T07:04:12.040Z,25.01
2019-05-29T07:05:03.624Z,25.29
2019-05-29T07:06:03.699Z,25.46
2019-05-29T07:07:03.774Z,25.29
2019-05-29T07:08:18.467Z,25.28
2019-05-29T07:09:03.934Z,25.48
2019-05-29T07:10:04.012Z,25.47
2019-05-29T07:11:04.081Z,25.66
2019-05-29T07:12:04.155Z,25.88
2019-05-29T07:13:04.236Z,26.10
2019-05-29T07:14:04.371Z,26.18
2019-05-29T07:15:04.391Z,25.98
2019-05-29T07:16:04.477Z,25.95
2019-05-29T07:17:04.547Z,26.02
2019-05-29T07:18:04.628Z,25.91
2019-05-29T07:20:04.787Z,26.23
2019-05-29T07:21:04.862Z,26.07
2019-05-29T07:22:04.939Z,25.85
2019-05-29T07:23:05.016Z,25.85
2019-05-29T07:24:05.112Z,25.90
2019-05-29T07:25:05.182Z,25.96
2019-05-29T07:26:05.256Z,25.84
2019-05-29T07:27:05.341Z,26.21
2019-05-29T07:28:05.412Z,26.02
2019-05-29T07:29:08.517Z,25.41
2019-05-29T07:30:05.571Z,25.81
2019-05-29T07:31:05.651Z,25.69
2019-05-29T07:32:05.720Z,25.25
2019-05-29T07:33:05.803Z,25.47
2019-05-29T07:34:05.889Z,25.43
2019-05-29T07:35:05.964Z,25.40
2019-05-29T07:36:06.039Z,25.58
2019-05-29T07:37:06.115Z,25.72
2019-05-29T07:38:06.197Z,25.58
2019-05-29T07:39:06.301Z,25.73
2019-05-29T07:40:06.348Z,25.35
2019-05-29T07:41:06.428Z,25.48
2019-05-29T07:42:06.505Z,25.81
2019-05-29T07:43:06.591Z,26.40
2019-05-29T07:44:06.672Z,26.31
2019-05-29T07:45:06.744Z,26.28
2019-05-29T07:46:06.821Z,26.68
2019-05-29T07:47:09.903Z,26.70
2019-05-29T07:48:06.977Z,26.73
2019-05-29T07:49:07.061Z,26.25
2019-05-29T07:50:07.136Z,26.31
2019-05-29T07:51:07.493Z,26.52
2019-05-29T07:52:07.289Z,26.77
2019-05-29T07:53:07.365Z,26.73
2019-05-29T07:54:07.451Z,25.91
2019-05-29T07:55:07.552Z,25.07
2019-05-29T07:56:21.565Z,25.46
2019-05-29T07:57:07.677Z,25.83
2019-05-29T07:58:07.761Z,26.63
2019-05-29T07:59:07.845Z,27.26
2019-05-29T08:00:07.921Z,27.63
2019-05-29T08:01:13.117Z,27.93
2019-05-29T08:02:08.070Z,27.73
2019-05-29T08:03:08.162Z,27.20
2019-05-29T08:04:08.331Z,27.75
2019-05-29T08:05:08.303Z,27.68
2019-05-29T08:06:08.424Z,27.44
2019-05-29T08:07:08.457Z,27.18
2019-05-29T08:08:08.540Z,26.33
2019-05-29T08:09:08.625Z,25.99
2019-05-29T08:10:08.708Z,26.19
2019-05-29T08:11:08.769Z,25.88
2019-05-29T08:12:08.849Z,25.54
2019-05-29T08:13:08.930Z,25.65
2019-05-29T08:14:09.010Z,25.78
2019-05-29T08:15:09.090Z,25.90
2019-05-29T08:16:09.160Z,25.55
2019-05-29T08:17:09.235Z,25.33
2019-05-29T08:18:09.320Z,25.78
2019-05-29T08:19:09.419Z,26.48
2019-05-29T08:20:09.480Z,27.10
2019-05-29T08:21:09.542Z,27.40
2019-05-29T08:22:09.626Z,27.40
2019-05-29T08:23:09.698Z,27.21
2019-05-29T08:24:09.783Z,27.39
2019-05-29T08:25:09.858Z,27.58
2019-05-29T08:26:09.932Z,27.35
2019-05-29T08:27:10.008Z,27.30
2019-05-29T08:28:10.106Z,27.00
2019-05-29T08:29:10.343Z,26.77
2019-05-29T08:30:10.243Z,26.19
2019-05-29T08:31:10.339Z,25.69
2019-05-29T08:32:10.395Z,25.85
2019-05-29T08:33:10.473Z,26.09
2019-05-29T08:34:10.555Z,26.52
2019-05-29T08:35:10.635Z,26.71
2019-05-29T08:36:10.699Z,26.85
2019-05-29T08:37:10.775Z,27.03
2019-05-29T08:38:10.859Z,27.37
2019-05-29T08:39:10.943Z,27.55
2019-05-29T08:40:11.011Z,27.26
2019-05-29T08:41:11.084Z,26.96
2019-05-29T08:42:22.468Z,26.36
2019-05-29T08:43:11.239Z,25.98
2019-05-29T08:44:11.340Z,26.09
2019-05-29T08:45:11.391Z,26.13
2019-05-29T08:46:11.464Z,26.60
2019-05-29T08:47:11.541Z,26.15
2019-05-29T08:48:11.618Z,26.68
2019-05-29T08:49:11.701Z,27.26
2019-05-29T08:50:18.585Z,27.18
2019-05-29T08:51:11.844Z,27.25
2019-05-29T08:52:12.658Z,26.31
2019-05-29T08:53:11.997Z,25.51
2019-05-29T08:54:23.442Z,25.36
2019-05-29T08:55:13.889Z,24.32
2019-05-29T08:56:12.230Z,24.70
2019-05-29T08:57:12.300Z,25.14
2019-05-29T08:58:12.373Z,24.89
2019-05-29T08:59:12.461Z,25.16
2019-05-29T09:00:12.554Z,25.31
2019-05-29T09:01:12.601Z,25.66
2019-05-29T09:02:12.677Z,25.18
2019-05-29T09:03:12.761Z,25.62
2019-05-29T09:04:12.838Z,26.06
2019-05-29T09:05:12.910Z,26.37
2019-05-29T09:06:13.825Z,26.60
2019-05-29T09:07:13.045Z,26.53
2019-05-29T09:08:13.122Z,26.62
2019-05-29T09:09:13.209Z,26.56
2019-05-29T09:10:13.269Z,25.51
2019-05-29T09:11:13.341Z,25.48
2019-05-29T09:12:13.417Z,25.85
2019-05-29T09:13:13.490Z,25.95
2019-05-29T09:14:13.577Z,26.45
2019-05-29T09:15:13.844Z,26.56
2019-05-29T09:16:13.714Z,26.28
2019-05-29T09:17:14.580Z,25.55
2019-05-29T09:18:14.998Z,25.41
2019-05-29T09:19:21.474Z,25.58
2019-05-29T09:20:30.860Z,25.77
2019-05-29T09:21:15.685Z,25.87
2019-05-29T09:22:14.957Z,26.23
2019-05-29T09:23:15.075Z,26.63
2019-05-29T09:24:15.791Z,26.75
2019-05-29T09:25:15.434Z,26.92
2019-05-29T09:26:20.665Z,27.02
2019-05-29T09:27:15.339Z,26.81
2019-05-29T09:28:16.065Z,26.93
2019-05-29T09:29:18.272Z,27.05
2019-05-29T09:30:15.504Z,27.05
2019-05-29T09:31:15.559Z,26.88
2019-05-29T09:32:16.575Z,26.65
2019-05-29T09:33:16.303Z,26.60
2019-05-29T09:34:15.464Z,26.93
2019-05-29T09:35:16.039Z,27.39
2019-05-29T09:36:15.765Z,27.77
2019-05-29T09:37:16.078Z,28.19
2019-05-29T09:38:16.747Z,27.89
2019-05-29T09:39:16.702Z,27.42
2019-05-29T09:40:16.886Z,27.15
2019-05-29T09:41:16.190Z,26.02
2019-05-29T09:42:17.343Z,25.68
2019-05-29T09:43:16.779Z,26.16
2019-05-29T09:44:31.307Z,26.25
2019-05-29T09:45:16.611Z,25.81
2019-05-29T09:46:17.091Z,25.81
2019-05-29T09:47:17.251Z,25.85
2019-05-29T09:48:20.212Z,25.32
2019-05-29T09:49:17.246Z,25.66
2019-05-29T09:50:17.324Z,25.80
2019-05-29T09:52:16.331Z,25.65
2019-05-29T09:53:16.408Z,25.26
2019-05-29T09:53:44.983Z,25.63
2019-05-29T09:54:16.496Z,24.86
2019-05-29T09:55:16.567Z,24.66
2019-05-29T09:56:16.632Z,25.13
2019-05-29T09:57:16.700Z,25.11
2019-05-29T09:58:16.769Z,25.26
2019-05-29T09:59:16.836Z,25.36
2019-05-29T10:00:16.915Z,25.33
2019-05-29T10:01:23.490Z,25.38
2019-05-29T10:02:17.052Z,25.60
2019-05-29T10:03:17.119Z,25.60
2019-05-29T10:04:17.192Z,25.36
2019-05-29T10:05:17.464Z,25.31
2019-05-29T10:06:17.332Z,25.14
2019-05-29T10:07:17.413Z,25.36
2019-05-29T10:08:17.476Z,25.08
2019-05-29T10:09:17.548Z,24.66
2019-05-29T10:10:17.626Z,23.98
2019-05-29T10:11:17.696Z,24.03
2019-05-29T10:12:17.759Z,24.23
2019-05-29T10:13:17.842Z,24.32
2019-05-29T10:14:17.896Z,24.24
2019-05-29T10:15:17.976Z,24.48
2019-05-29T10:16:18.048Z,24.65
2019-05-29T10:17:18.145Z,24.86
2019-05-29T10:18:31.481Z,24.88
2019-05-29T10:19:18.248Z,25.14
2019-05-29T10:20:18.316Z,25.16
2019-05-29T10:21:18.650Z,25.11
2019-05-29T10:22:18.460Z,25.26
2019-05-29T10:23:20.131Z,24.99
2019-05-29T10:24:18.597Z,25.08
2019-05-29T10:25:18.670Z,25.07
2019-05-29T10:26:18.745Z,25.35
2019-05-29T10:27:18.819Z,25.55
2019-05-29T10:28:18.880Z,25.51
2019-05-29T10:29:18.949Z,25.25
2019-05-29T10:30:19.020Z,25.14
2019-05-29T10:31:19.269Z,24.98
2019-05-29T10:32:19.161Z,25.14
2019-05-29T10:33:19.225Z,25.11
2019-05-29T10:34:19.297Z,24.99
2019-05-29T10:35:19.380Z,24.89
2019-05-29T10:36:19.460Z,24.74
2019-05-29T10:37:19.510Z,24.40
2019-05-29T10:38:19.575Z,24.57
2019-05-29T10:39:29.988Z,24.33
2019-05-29T10:40:19.717Z,24.29
2019-05-29T10:41:19.792Z,24.13
2019-05-29T10:42:20.676Z,24.28
2019-05-29T10:43:33.847Z,23.98
2019-05-29T10:44:19.989Z,23.81
2019-05-29T10:45:20.057Z,23.73
2019-05-29T10:46:20.150Z,23.83
2019-05-29T10:47:20.197Z,24.01
2019-05-29T10:48:20.268Z,24.36
2019-05-29T10:49:20.360Z,24.57
2019-05-29T10:50:20.406Z,24.26
2019-05-29T10:51:20.482Z,23.95
2019-05-29T10:52:20.559Z,24.13
2019-05-29T10:53:20.614Z,24.39
2019-05-29T10:54:20.682Z,24.55
2019-05-29T10:55:20.781Z,24.68
2019-05-29T10:56:21.575Z,24.89
2019-05-29T10:57:20.899Z,24.92
2019-05-29T10:58:20.963Z,24.60
2019-05-29T10:59:21.028Z,24.32
2019-05-29T11:00:21.094Z,24.26
2019-05-29T11:01:21.191Z,24.20
2019-05-29T11:02:21.235Z,23.84
2019-05-29T11:03:21.302Z,23.69
2019-05-29T11:04:21.371Z,23.71
2019-05-29T11:05:21.450Z,23.87
2019-05-29T11:06:21.515Z,23.84
2019-05-29T11:07:21.584Z,23.69
2019-05-29T11:08:21.647Z,23.63
2019-05-29T11:09:21.721Z,23.36
2019-05-29T11:10:21.785Z,23.05
2019-05-29T11:11:21.971Z,22.93
2019-05-29T11:12:21.927Z,22.93
2019-05-29T11:13:22.021Z,22.98
2019-05-29T11:14:22.059Z,23.21
2019-05-29T11:15:22.238Z,22.90
2019-05-29T11:16:22.292Z,23.09
2019-05-29T11:17:22.273Z,23.00
2019-05-29T11:18:22.333Z,23.17
2019-05-29T11:19:25.977Z,23.48
2019-05-29T11:20:22.471Z,23.71
2019-05-29T11:21:22.544Z,23.76
2019-05-29T11:22:26.405Z,23.86
2019-05-29T11:23:22.675Z,23.86
2019-05-29T11:24:22.745Z,23.62
2019-05-29T11:25:27.446Z,23.78
2019-05-29T11:26:22.892Z,23.93
2019-05-29T11:27:26.007Z,24.08
2019-05-29T11:28:23.020Z,24.02
2019-05-29T11:29:23.088Z,23.77
2019-05-29T11:30:23.157Z,23.68
2019-05-29T11:31:23.343Z,23.74
2019-05-29T11:32:23.293Z,23.40
2019-05-29T11:33:23.361Z,23.06
2019-05-29T11:34:23.431Z,23.13
2019-05-29T11:35:23.556Z,23.08
2019-05-29T11:36:23.572Z,23.05
2019-05-29T11:37:23.644Z,22.87
2019-05-29T11:38:23.759Z,22.44
2019-05-29T11:39:23.781Z,22.45
2019-05-29T11:40:23.844Z,22.75
2019-05-29T11:41:26.546Z,22.88
2019-05-29T11:42:27.338Z,22.62
2019-05-29T11:43:24.048Z,22.18
2019-05-29T11:44:24.115Z,21.92
2019-05-29T11:45:24.180Z,21.98
2019-05-29T11:46:24.359Z,21.66
2019-05-29T11:47:24.321Z,22.14
2019-05-29T11:48:24.389Z,22.18
2019-05-29T11:49:24.453Z,22.26
2019-05-29T11:50:24.525Z,22.38
2019-05-29T11:51:24.607Z,22.26
2019-05-29T11:52:26.572Z,22.41
2019-05-29T11:53:24.725Z,22.69
2019-05-29T11:54:24.798Z,22.93
2019-05-29T11:55:24.865Z,23.06
2019-05-29T11:56:24.939Z,23.15
2019-05-29T11:57:25.005Z,23.24
2019-05-29T11:58:30.975Z,23.20
2019-05-29T11:59:25.152Z,23.21
2019-05-29T12:00:25.209Z,23.24
2019-05-29T12:01:25.293Z,23.18
2019-05-29T12:02:25.342Z,23.20
2019-05-29T12:03:25.408Z,23.21
2019-05-29T12:04:26.986Z,23.25
2019-05-29T12:05:25.549Z,23.15
2019-05-29T12:06:25.619Z,23.25
2019-05-29T12:07:25.699Z,23.48
2019-05-29T12:08:25.752Z,23.58
2019-05-29T12:09:32.842Z,23.66
2019-05-29T12:10:25.882Z,23.91
2019-05-29T12:11:25.958Z,24.01
2019-05-29T12:12:26.032Z,24.13
2019-05-29T12:13:26.087Z,24.33
2019-05-29T12:14:26.155Z,24.38
2019-05-29T12:15:26.226Z,24.43
2019-05-29T12:16:26.398Z,24.57
2019-05-29T12:17:26.461Z,24.26
2019-05-29T12:18:26.446Z,24.05
2019-05-29T12:19:26.499Z,24.06
2019-05-29T12:20:28.567Z,23.93
2019-05-29T12:21:26.650Z,23.86
2019-05-29T12:22:26.713Z,23.92
2019-05-29T12:23:27.285Z,23.96
2019-05-29T12:24:26.849Z,24.08
2019-05-29T12:25:26.909Z,24.23
2019-05-29T12:26:26.983Z,24.23
2019-05-29T12:27:27.051Z,24.30
2019-05-29T12:28:27.115Z,24.24
2019-05-29T12:29:27.181Z,24.10
2019-05-29T12:30:27.247Z,24.02
2019-05-29T12:31:27.419Z,24.14
2019-05-29T12:32:27.383Z,23.41
2019-05-29T12:33:27.458Z,23.62
2019-05-29T12:34:27.530Z,23.74
2019-05-29T12:35:27.595Z,23.86
2019-05-29T12:36:27.665Z,24.06
2019-05-29T12:37:27.780Z,24.21
2019-05-29T12:38:27.808Z,24.14
2019-05-29T12:39:27.863Z,24.28
2019-05-29T12:40:27.931Z,24.29
2019-05-29T12:41:28.016Z,24.14
2019-05-29T12:42:28.081Z,24.11
2019-05-29T12:43:28.334Z,24.03
2019-05-29T12:44:28.204Z,23.88
2019-05-29T12:45:28.271Z,24.02
2019-05-29T12:46:28.444Z,23.78
2019-05-29T12:47:28.411Z,23.54
2019-05-29T12:48:28.483Z,23.48
2019-05-29T12:49:28.548Z,23.59
2019-05-29T12:50:28.638Z,23.63
2019-05-29T12:51:28.700Z,23.59
2019-05-29T12:52:28.764Z,23.78
2019-05-29T12:53:31.095Z,23.88
2019-05-29T12:54:28.889Z,23.91
2019-05-29T12:55:28.965Z,23.99
2019-05-29T12:56:29.033Z,23.96
2019-05-29T12:57:29.100Z,23.21
2019-05-29T12:58:29.162Z,22.87
2019-05-29T12:59:29.232Z,22.96
2019-05-29T13:00:29.301Z,22.72
2019-05-29T13:01:29.386Z,22.73
2019-05-29T13:02:29.437Z,22.88